Etusivu
METAR-TAF:

METAR-TAF

Lentoasemat :

Pointe-Noire, Kongo

Leveyspiiri: 04-49S, Pituuspiiri: 011-54E, korkeus merenpinnasta: 17 m

Tämänhetkinen sää

Tämä raportti tehtiin 1 tunti ja 13 minuuttia sitten, kello 19.00 UTC
Tuuli 4 kn lounaasta
Lämpötila 26°C
Kosteus 89%
Ilmanpaine 1011 hPa
Näkyvyys: 8000 m
Hajanaisia pilviä 1200 ft:n korkeudessa

METAR: FCPP 251900Z 23004KT 8000 SCT012 26/24 Q1011 NOSIG

Aika: 21:13 (20:13 UTC)

Sääennuste

Tämä raportti tehtiin 3 tuntia ja 13 minuuttia sitten, kello 17.00 UTC
Ennuste voimassa 25. päivästä klo 18 UTC - 26. päivään klo 18 UTC
Tuuli 8 kn lounaasta
Näkyvyys 10 km tai enemmän
Muutamia pilviä 1500 ft:n korkeudessa
Hajonneita pilviä 2300 ft:n korkeudessa
Ajoittain
26. päivästä klo 04 UTC - 26. päivään klo 06 UTC
Näkyvyys: 4000 m
Hajanaisia pilviä 2300 ft:n korkeudessa
utua

TAF: FCPP 251700Z 2518/2618 22008KT 9999 FEW015 BKN023 PR3030 TEMPO 2604/2606 4000 BR BECMG2607/0209 SCT023

Säähavainnot ja -ennusteet yli 4000 lentoasemalta (METAR- ja TAF-raportit).

Käytössä olevat sääasemat on merkitty karttaan keltaisilla ja punaisilla pisteillä.

Aseta hiiri pisteen päälle nähdäksesi sääaseman nimen.

Klikkaa sitten nähdäksesi säähavainnot ja -ennusteet.

Kartan vaihtaminen: klikkaa mustalla rastilla varustettuja vihreitä pisteitä, niin voit zoomata sisään; viivalla varustettua vihreää pistettä, niin voit zoomata ulos tai vihreitä nuolia, niin pääset viereisille kartoille.


METAR-TAF: